sensor_id;sensor_type;location;lat;lon;timestamp;P1;durP1;ratioP1;P2;durP2;ratioP2
51961;SDS011;37986;51.238;17.128;2022-08-25T00:00:19;24.00;;;19.42;;
51961;SDS011;37986;51.238;17.128;2022-08-25T00:02:48;25.97;;;18.30;;
51961;SDS011;37986;51.238;17.128;2022-08-25T00:05:14;26.55;;;20.17;;
51961;SDS011;37986;51.238;17.128;2022-08-25T00:07:40;23.35;;;19.10;;
51961;SDS011;37986;51.238;17.128;2022-08-25T00:10:06;22.80;;;18.85;;
51961;SDS011;37986;51.238;17.128;2022-08-25T00:12:33;27.37;;;18.45;;
51961;SDS011;37986;51.238;17.128;2022-08-25T00:14:59;25.50;;;19.62;;
51961;SDS011;37986;51.238;17.128;2022-08-25T00:17:25;27.80;;;20.20;;
51961;SDS011;37986;51.238;17.128;2022-08-25T00:19:51;27.67;;;20.08;;
51961;SDS011;37986;51.238;17.128;2022-08-25T00:22:17;27.73;;;20.20;;
51961;SDS011;37986;51.238;17.128;2022-08-25T00:24:43;26.50;;;19.85;;
51961;SDS011;37986;51.238;17.128;2022-08-25T00:27:08;30.45;;;19.32;;
51961;SDS011;37986;51.238;17.128;2022-08-25T00:29:36;24.80;;;19.77;;
51961;SDS011;37986;51.238;17.128;2022-08-25T00:32:03;26.97;;;19.82;;
51961;SDS011;37986;51.238;17.128;2022-08-25T00:34:32;21.50;;;18.90;;
51961;SDS011;37986;51.238;17.128;2022-08-25T00:37:01;22.53;;;18.50;;
51961;SDS011;37986;51.238;17.128;2022-08-25T00:39:30;26.80;;;19.15;;
51961;SDS011;37986;51.238;17.128;2022-08-25T00:41:56;21.15;;;18.87;;
51961;SDS011;37986;51.238;17.128;2022-08-25T00:44:24;23.65;;;19.20;;
51961;SDS011;37986;51.238;17.128;2022-08-25T00:46:54;25.30;;;20.00;;
51961;SDS011;37986;51.238;17.128;2022-08-25T00:54:53;25.17;;;18.07;;
51961;SDS011;37986;51.238;17.128;2022-08-25T00:57:33;23.85;;;17.92;;
51961;SDS011;37986;51.238;17.128;2022-08-25T01:00:12;24.72;;;17.62;;
51961;SDS011;37986;51.238;17.128;2022-08-25T01:02:41;23.92;;;17.85;;
51961;SDS011;37986;51.238;17.128;2022-08-25T01:05:08;25.40;;;20.75;;
51961;SDS011;37986;51.238;17.128;2022-08-25T01:07:34;27.20;;;21.05;;
51961;SDS011;37986;51.238;17.128;2022-08-25T01:10:00;31.15;;;20.17;;
51961;SDS011;37986;51.238;17.128;2022-08-25T01:12:28;30.32;;;20.20;;
51961;SDS011;37986;51.238;17.128;2022-08-25T01:14:54;23.85;;;19.07;;
51961;SDS011;37986;51.238;17.128;2022-08-25T01:17:20;24.85;;;19.77;;
51961;SDS011;37986;51.238;17.128;2022-08-25T01:19:46;31.60;;;20.65;;
51961;SDS011;37986;51.238;17.128;2022-08-25T01:22:12;31.93;;;22.05;;
51961;SDS011;37986;51.238;17.128;2022-08-25T01:24:53;29.23;;;21.97;;
51961;SDS011;37986;51.238;17.128;2022-08-25T01:27:24;32.15;;;21.82;;
51961;SDS011;37986;51.238;17.128;2022-08-25T01:29:50;29.90;;;21.48;;
51961;SDS011;37986;51.238;17.128;2022-08-25T01:32:15;25.75;;;20.92;;
51961;SDS011;37986;51.238;17.128;2022-08-25T01:34:42;27.15;;;19.92;;
51961;SDS011;37986;51.238;17.128;2022-08-25T01:37:10;27.90;;;22.10;;
51961;SDS011;37986;51.238;17.128;2022-08-25T01:39:38;27.77;;;21.37;;
51961;SDS011;37986;51.238;17.128;2022-08-25T01:44:46;25.15;;;20.17;;
51961;SDS011;37986;51.238;17.128;2022-08-25T01:47:13;24.95;;;19.57;;
51961;SDS011;37986;51.238;17.128;2022-08-25T01:49:39;22.48;;;19.55;;
51961;SDS011;37986;51.238;17.128;2022-08-25T01:54:51;26.30;;;19.45;;
51961;SDS011;37986;51.238;17.128;2022-08-25T01:57:17;25.35;;;20.97;;
51961;SDS011;37986;51.238;17.128;2022-08-25T01:59:43;25.80;;;19.05;;
51961;SDS011;37986;51.238;17.128;2022-08-25T02:02:10;21.97;;;19.65;;
51961;SDS011;37986;51.238;17.128;2022-08-25T02:04:36;24.32;;;18.75;;
51961;SDS011;37986;51.238;17.128;2022-08-25T02:07:03;21.15;;;18.37;;
51961;SDS011;37986;51.238;17.128;2022-08-25T02:09:31;23.45;;;20.43;;
51961;SDS011;37986;51.238;17.128;2022-08-25T02:11:59;24.18;;;20.40;;
51961;SDS011;37986;51.238;17.128;2022-08-25T02:14:25;24.07;;;19.60;;
51961;SDS011;37986;51.238;17.128;2022-08-25T02:16:53;28.40;;;18.45;;
51961;SDS011;37986;51.238;17.128;2022-08-25T02:19:20;22.90;;;20.50;;
51961;SDS011;37986;51.238;17.128;2022-08-25T02:21:48;25.68;;;20.35;;
51961;SDS011;37986;51.238;17.128;2022-08-25T02:24:14;31.82;;;19.40;;
51961;SDS011;37986;51.238;17.128;2022-08-25T02:26:41;23.70;;;18.52;;
51961;SDS011;37986;51.238;17.128;2022-08-25T02:29:07;24.82;;;20.80;;
51961;SDS011;37986;51.238;17.128;2022-08-25T02:31:34;24.77;;;20.02;;
51961;SDS011;37986;51.238;17.128;2022-08-25T02:34:02;27.22;;;21.23;;
51961;SDS011;37986;51.238;17.128;2022-08-25T02:36:28;31.27;;;20.90;;
51961;SDS011;37986;51.238;17.128;2022-08-25T02:38:56;24.60;;;19.65;;
51961;SDS011;37986;51.238;17.128;2022-08-25T02:41:23;33.58;;;20.77;;
51961;SDS011;37986;51.238;17.128;2022-08-25T02:43:51;29.27;;;18.98;;
51961;SDS011;37986;51.238;17.128;2022-08-25T02:46:19;31.27;;;20.08;;
51961;SDS011;37986;51.238;17.128;2022-08-25T02:48:46;24.23;;;20.43;;
51961;SDS011;37986;51.238;17.128;2022-08-25T02:51:13;21.68;;;19.20;;
51961;SDS011;37986;51.238;17.128;2022-08-25T02:53:39;26.33;;;20.88;;
51961;SDS011;37986;51.238;17.128;2022-08-25T02:56:07;26.07;;;19.67;;
51961;SDS011;37986;51.238;17.128;2022-08-25T02:58:35;25.95;;;20.62;;
51961;SDS011;37986;51.238;17.128;2022-08-25T03:01:01;31.75;;;20.95;;
51961;SDS011;37986;51.238;17.128;2022-08-25T03:03:27;28.35;;;20.77;;
51961;SDS011;37986;51.238;17.128;2022-08-25T03:05:53;26.42;;;19.90;;
51961;SDS011;37986;51.238;17.128;2022-08-25T03:08:21;27.50;;;20.08;;
51961;SDS011;37986;51.238;17.128;2022-08-25T03:10:48;29.48;;;23.10;;
51961;SDS011;37986;51.238;17.128;2022-08-25T03:13:14;25.65;;;20.97;;
51961;SDS011;37986;51.238;17.128;2022-08-25T03:15:41;28.55;;;21.60;;
51961;SDS011;37986;51.238;17.128;2022-08-25T03:18:08;30.12;;;21.73;;
51961;SDS011;37986;51.238;17.128;2022-08-25T03:20:36;24.70;;;20.15;;
51961;SDS011;37986;51.238;17.128;2022-08-25T03:23:03;34.00;;;23.35;;
51961;SDS011;37986;51.238;17.128;2022-08-25T03:25:31;28.60;;;23.20;;
51961;SDS011;37986;51.238;17.128;2022-08-25T03:28:16;32.05;;;23.30;;
51961;SDS011;37986;51.238;17.128;2022-08-25T03:30:42;31.97;;;23.30;;
51961;SDS011;37986;51.238;17.128;2022-08-25T03:33:08;32.65;;;23.90;;
51961;SDS011;37986;51.238;17.128;2022-08-25T03:35:34;32.63;;;25.48;;
51961;SDS011;37986;51.238;17.128;2022-08-25T03:38:00;33.85;;;25.43;;
51961;SDS011;37986;51.238;17.128;2022-08-25T03:40:26;38.30;;;26.62;;
51961;SDS011;37986;51.238;17.128;2022-08-25T03:42:52;39.38;;;29.40;;
51961;SDS011;37986;51.238;17.128;2022-08-25T03:45:19;40.10;;;28.85;;
51961;SDS011;37986;51.238;17.128;2022-08-25T03:47:48;32.60;;;25.17;;
51961;SDS011;37986;51.238;17.128;2022-08-25T03:50:15;31.27;;;25.75;;
51961;SDS011;37986;51.238;17.128;2022-08-25T03:52:43;32.42;;;23.52;;
51961;SDS011;37986;51.238;17.128;2022-08-25T03:55:10;29.23;;;23.50;;
51961;SDS011;37986;51.238;17.128;2022-08-25T03:57:38;28.55;;;22.40;;
51961;SDS011;37986;51.238;17.128;2022-08-25T04:00:06;28.25;;;22.73;;
51961;SDS011;37986;51.238;17.128;2022-08-25T04:02:34;29.45;;;22.55;;
51961;SDS011;37986;51.238;17.128;2022-08-25T04:04:59;32.28;;;22.52;;
51961;SDS011;37986;51.238;17.128;2022-08-25T04:07:25;32.03;;;21.87;;
51961;SDS011;37986;51.238;17.128;2022-08-25T04:09:56;50.48;;;22.82;;
51961;SDS011;37986;51.238;17.128;2022-08-25T04:12:20;29.20;;;20.40;;
51961;SDS011;37986;51.238;17.128;2022-08-25T04:14:47;37.40;;;21.02;;
51961;SDS011;37986;51.238;17.128;2022-08-25T04:17:13;30.72;;;20.48;;
51961;SDS011;37986;51.238;17.128;2022-08-25T04:19:39;37.17;;;21.07;;
51961;SDS011;37986;51.238;17.128;2022-08-25T04:22:04;34.88;;;20.88;;
51961;SDS011;37986;51.238;17.128;2022-08-25T04:24:30;29.52;;;20.23;;
51961;SDS011;37986;51.238;17.128;2022-08-25T04:26:56;26.30;;;20.37;;
51961;SDS011;37986;51.238;17.128;2022-08-25T04:29:23;28.60;;;19.65;;
51961;SDS011;37986;51.238;17.128;2022-08-25T04:31:50;25.48;;;21.35;;
51961;SDS011;37986;51.238;17.128;2022-08-25T04:34:18;31.90;;;22.20;;
51961;SDS011;37986;51.238;17.128;2022-08-25T04:36:47;27.40;;;22.45;;
51961;SDS011;37986;51.238;17.128;2022-08-25T04:39:15;23.18;;;20.65;;
51961;SDS011;37986;51.238;17.128;2022-08-25T04:41:48;23.20;;;20.65;;
51961;SDS011;37986;51.238;17.128;2022-08-25T04:44:15;23.07;;;20.48;;
51961;SDS011;37986;51.238;17.128;2022-08-25T04:46:41;30.32;;;21.77;;
51961;SDS011;37986;51.238;17.128;2022-08-25T04:49:07;22.77;;;20.48;;
51961;SDS011;37986;51.238;17.128;2022-08-25T04:51:39;19.90;;;17.98;;
51961;SDS011;37986;51.238;17.128;2022-08-25T04:54:06;19.70;;;16.40;;
51961;SDS011;37986;51.238;17.128;2022-08-25T04:56:36;16.77;;;15.15;;
51961;SDS011;37986;51.238;17.128;2022-08-25T04:59:09;16.60;;;14.98;;
51961;SDS011;37986;51.238;17.128;2022-08-25T05:01:35;17.02;;;15.28;;
51961;SDS011;37986;51.238;17.128;2022-08-25T05:04:02;15.95;;;14.45;;
51961;SDS011;37986;51.238;17.128;2022-08-25T05:06:31;17.40;;;13.00;;
51961;SDS011;37986;51.238;17.128;2022-08-25T05:08:58;15.00;;;12.90;;
51961;SDS011;37986;51.238;17.128;2022-08-25T05:11:25;12.65;;;10.72;;
51961;SDS011;37986;51.238;17.128;2022-08-25T05:13:51;16.70;;;12.25;;
51961;SDS011;37986;51.238;17.128;2022-08-25T05:16:20;16.67;;;11.10;;
51961;SDS011;37986;51.238;17.128;2022-08-25T05:18:48;17.07;;;11.70;;
51961;SDS011;37986;51.238;17.128;2022-08-25T05:21:19;13.10;;;11.55;;
51961;SDS011;37986;51.238;17.128;2022-08-25T05:23:55;12.98;;;11.10;;
51961;SDS011;37986;51.238;17.128;2022-08-25T05:26:22;12.63;;;10.50;;
51961;SDS011;37986;51.238;17.128;2022-08-25T05:28:51;12.63;;;10.60;;
51961;SDS011;37986;51.238;17.128;2022-08-25T05:31:20;12.95;;;10.05;;
51961;SDS011;37986;51.238;17.128;2022-08-25T05:33:48;12.47;;;9.55;;
51961;SDS011;37986;51.238;17.128;2022-08-25T05:36:15;13.62;;;9.73;;
51961;SDS011;37986;51.238;17.128;2022-08-25T05:38:42;18.48;;;10.08;;
51961;SDS011;37986;51.238;17.128;2022-08-25T05:41:10;9.55;;;8.63;;
51961;SDS011;37986;51.238;17.128;2022-08-25T05:43:40;17.32;;;9.58;;
51961;SDS011;37986;51.238;17.128;2022-08-25T05:46:08;10.53;;;9.53;;
51961;SDS011;37986;51.238;17.128;2022-08-25T05:48:34;11.50;;;9.05;;
51961;SDS011;37986;51.238;17.128;2022-08-25T05:51:02;10.75;;;8.83;;
51961;SDS011;37986;51.238;17.128;2022-08-25T05:53:32;11.75;;;9.68;;
51961;SDS011;37986;51.238;17.128;2022-08-25T05:55:59;14.95;;;9.85;;
51961;SDS011;37986;51.238;17.128;2022-08-25T05:58:26;11.30;;;9.88;;
51961;SDS011;37986;51.238;17.128;2022-08-25T06:00:54;10.95;;;9.85;;
51961;SDS011;37986;51.238;17.128;2022-08-25T06:03:20;14.78;;;10.28;;
51961;SDS011;37986;51.238;17.128;2022-08-25T06:05:47;13.38;;;11.33;;
51961;SDS011;37986;51.238;17.128;2022-08-25T06:08:13;18.52;;;12.90;;
51961;SDS011;37986;51.238;17.128;2022-08-25T06:10:40;18.40;;;13.03;;
51961;SDS011;37986;51.238;17.128;2022-08-25T06:13:06;20.65;;;13.03;;
51961;SDS011;37986;51.238;17.128;2022-08-25T06:15:33;22.37;;;13.25;;
51961;SDS011;37986;51.238;17.128;2022-08-25T06:17:59;16.60;;;12.18;;
51961;SDS011;37986;51.238;17.128;2022-08-25T06:20:27;20.12;;;13.38;;
51961;SDS011;37986;51.238;17.128;2022-08-25T06:22:56;14.20;;;12.68;;
51961;SDS011;37986;51.238;17.128;2022-08-25T06:25:23;17.30;;;12.98;;
51961;SDS011;37986;51.238;17.128;2022-08-25T06:27:52;16.52;;;14.38;;
51961;SDS011;37986;51.238;17.128;2022-08-25T06:30:19;19.85;;;15.10;;
51961;SDS011;37986;51.238;17.128;2022-08-25T06:32:47;15.83;;;13.85;;
51961;SDS011;37986;51.238;17.128;2022-08-25T06:35:17;21.25;;;14.83;;
51961;SDS011;37986;51.238;17.128;2022-08-25T06:37:46;25.05;;;15.40;;
51961;SDS011;37986;51.238;17.128;2022-08-25T06:40:13;32.53;;;21.30;;
51961;SDS011;37986;51.238;17.128;2022-08-25T06:42:40;22.35;;;15.48;;
51961;SDS011;37986;51.238;17.128;2022-08-25T06:45:06;21.00;;;15.72;;
51961;SDS011;37986;51.238;17.128;2022-08-25T06:47:33;22.70;;;15.65;;
51961;SDS011;37986;51.238;17.128;2022-08-25T06:49:59;26.43;;;16.77;;
51961;SDS011;37986;51.238;17.128;2022-08-25T06:52:25;23.25;;;15.58;;
51961;SDS011;37986;51.238;17.128;2022-08-25T06:54:51;25.95;;;15.72;;
51961;SDS011;37986;51.238;17.128;2022-08-25T06:57:17;19.55;;;15.40;;
51961;SDS011;37986;51.238;17.128;2022-08-25T06:59:45;24.80;;;15.72;;
51961;SDS011;37986;51.238;17.128;2022-08-25T07:02:11;23.57;;;14.60;;
51961;SDS011;37986;51.238;17.128;2022-08-25T07:04:37;23.38;;;16.05;;
51961;SDS011;37986;51.238;17.128;2022-08-25T07:07:03;25.82;;;15.72;;
51961;SDS011;37986;51.238;17.128;2022-08-25T07:09:29;19.62;;;16.15;;
51961;SDS011;37986;51.238;17.128;2022-08-25T07:11:55;24.18;;;15.65;;
51961;SDS011;37986;51.238;17.128;2022-08-25T07:14:21;20.48;;;15.95;;
51961;SDS011;37986;51.238;17.128;2022-08-25T07:16:47;24.72;;;15.53;;
51961;SDS011;37986;51.238;17.128;2022-08-25T07:19:13;23.12;;;14.80;;
51961;SDS011;37986;51.238;17.128;2022-08-25T07:21:39;22.37;;;15.68;;
51961;SDS011;37986;51.238;17.128;2022-08-25T07:24:07;21.80;;;15.10;;
51961;SDS011;37986;51.238;17.128;2022-08-25T07:26:37;21.57;;;14.35;;
51961;SDS011;37986;51.238;17.128;2022-08-25T07:29:08;22.98;;;14.73;;
51961;SDS011;37986;51.238;17.128;2022-08-25T07:31:37;22.07;;;14.50;;
51961;SDS011;37986;51.238;17.128;2022-08-25T07:34:03;20.90;;;14.28;;
51961;SDS011;37986;51.238;17.128;2022-08-25T07:36:49;23.25;;;14.65;;
51961;SDS011;37986;51.238;17.128;2022-08-25T07:39:14;19.48;;;14.95;;
51961;SDS011;37986;51.238;17.128;2022-08-25T07:41:42;20.25;;;14.35;;
51961;SDS011;37986;51.238;17.128;2022-08-25T07:44:08;22.05;;;14.35;;
51961;SDS011;37986;51.238;17.128;2022-08-25T07:46:36;20.40;;;13.95;;
51961;SDS011;37986;51.238;17.128;2022-08-25T07:49:02;17.82;;;12.58;;
51961;SDS011;37986;51.238;17.128;2022-08-25T07:51:29;18.10;;;12.15;;
51961;SDS011;37986;51.238;17.128;2022-08-25T07:53:55;16.93;;;12.23;;
51961;SDS011;37986;51.238;17.128;2022-08-25T07:56:21;15.88;;;12.33;;
51961;SDS011;37986;51.238;17.128;2022-08-25T07:58:47;18.45;;;13.00;;
51961;SDS011;37986;51.238;17.128;2022-08-25T08:01:14;19.32;;;12.05;;
51961;SDS011;37986;51.238;17.128;2022-08-25T08:03:42;19.07;;;11.93;;
51961;SDS011;37986;51.238;17.128;2022-08-25T08:06:09;18.30;;;12.40;;
51961;SDS011;37986;51.238;17.128;2022-08-25T08:08:39;12.60;;;10.58;;
51961;SDS011;37986;51.238;17.128;2022-08-25T08:11:16;18.17;;;11.33;;
51961;SDS011;37986;51.238;17.128;2022-08-25T08:13:46;16.93;;;11.00;;
51961;SDS011;37986;51.238;17.128;2022-08-25T08:16:14;15.70;;;10.90;;
51961;SDS011;37986;51.238;17.128;2022-08-25T08:18:42;18.42;;;11.00;;
51961;SDS011;37986;51.238;17.128;2022-08-25T08:21:10;21.05;;;11.12;;
51961;SDS011;37986;51.238;17.128;2022-08-25T08:23:39;13.45;;;9.25;;
51961;SDS011;37986;51.238;17.128;2022-08-25T08:26:05;13.98;;;10.03;;
51961;SDS011;37986;51.238;17.128;2022-08-25T08:28:31;17.90;;;11.25;;
51961;SDS011;37986;51.238;17.128;2022-08-25T08:30:57;16.40;;;10.00;;
51961;SDS011;37986;51.238;17.128;2022-08-25T08:33:23;14.65;;;9.63;;
51961;SDS011;37986;51.238;17.128;2022-08-25T08:36:00;13.40;;;8.65;;
51961;SDS011;37986;51.238;17.128;2022-08-25T08:38:31;14.75;;;8.30;;
51961;SDS011;37986;51.238;17.128;2022-08-25T08:41:02;14.03;;;8.30;;
51961;SDS011;37986;51.238;17.128;2022-08-25T08:44:23;17.30;;;8.88;;
51961;SDS011;37986;51.238;17.128;2022-08-25T08:47:04;13.05;;;8.28;;
51961;SDS011;37986;51.238;17.128;2022-08-25T08:50:05;10.88;;;7.37;;
51961;SDS011;37986;51.238;17.128;2022-08-25T08:52:57;11.97;;;7.08;;
51961;SDS011;37986;51.238;17.128;2022-08-25T08:55:39;11.53;;;7.37;;
51961;SDS011;37986;51.238;17.128;2022-08-25T08:58:19;11.12;;;7.10;;
51961;SDS011;37986;51.238;17.128;2022-08-25T09:00:53;13.28;;;7.25;;
51961;SDS011;37986;51.238;17.128;2022-08-25T09:03:26;15.40;;;7.12;;
51961;SDS011;37986;51.238;17.128;2022-08-25T09:06:10;15.72;;;5.90;;
51961;SDS011;37986;51.238;17.128;2022-08-25T09:08:40;7.95;;;5.58;;
51961;SDS011;37986;51.238;17.128;2022-08-25T09:14:06;17.60;;;4.47;;
51961;SDS011;37986;51.238;17.128;2022-08-25T09:26:34;14.33;;;4.87;;
51961;SDS011;37986;51.238;17.128;2022-08-25T09:29:13;18.65;;;4.97;;
51961;SDS011;37986;51.238;17.128;2022-08-25T09:31:43;16.82;;;4.35;;
51961;SDS011;37986;51.238;17.128;2022-08-25T09:34:11;19.52;;;4.35;;
51961;SDS011;37986;51.238;17.128;2022-08-25T09:36:40;19.92;;;4.50;;
51961;SDS011;37986;51.238;17.128;2022-08-25T09:39:06;17.70;;;5.05;;
51961;SDS011;37986;51.238;17.128;2022-08-25T09:41:34;11.48;;;4.08;;
51961;SDS011;37986;51.238;17.128;2022-08-25T09:47:04;16.48;;;4.62;;
51961;SDS011;37986;51.238;17.128;2022-08-25T09:50:05;16.25;;;4.30;;
51961;SDS011;37986;51.238;17.128;2022-08-25T09:52:17;14.25;;;4.15;;
51961;SDS011;37986;51.238;17.128;2022-08-25T09:57:47;21.70;;;5.37;;
51961;SDS011;37986;51.238;17.128;2022-08-25T10:09:33;17.98;;;5.12;;
51961;SDS011;37986;51.238;17.128;2022-08-25T10:12:14;25.75;;;5.95;;
51961;SDS011;37986;51.238;17.128;2022-08-25T10:14:46;24.10;;;5.72;;
51961;SDS011;37986;51.238;17.128;2022-08-25T10:17:17;19.60;;;5.62;;
51961;SDS011;37986;51.238;17.128;2022-08-25T10:19:54;26.73;;;5.72;;
51961;SDS011;37986;51.238;17.128;2022-08-25T10:22:37;15.78;;;4.70;;
51961;SDS011;37986;51.238;17.128;2022-08-25T10:25:06;18.17;;;4.80;;
51961;SDS011;37986;51.238;17.128;2022-08-25T10:30:27;20.12;;;5.12;;
51961;SDS011;37986;51.238;17.128;2022-08-25T10:36:26;14.15;;;5.30;;
51961;SDS011;37986;51.238;17.128;2022-08-25T10:38:58;16.32;;;5.08;;
51961;SDS011;37986;51.238;17.128;2022-08-25T10:50:26;14.70;;;5.05;;
51961;SDS011;37986;51.238;17.128;2022-08-25T11:04:40;25.82;;;6.87;;
51961;SDS011;37986;51.238;17.128;2022-08-25T11:58:31;36.35;;;4.97;;
51961;SDS011;37986;51.238;17.128;2022-08-25T12:04:16;33.92;;;5.78;;
51961;SDS011;37986;51.238;17.128;2022-08-25T12:07:28;26.07;;;5.75;;
51961;SDS011;37986;51.238;17.128;2022-08-25T12:10:52;33.05;;;5.28;;
51961;SDS011;37986;51.238;17.128;2022-08-25T12:13:47;23.85;;;5.22;;
51961;SDS011;37986;51.238;17.128;2022-08-25T12:21:28;29.90;;;5.25;;
51961;SDS011;37986;51.238;17.128;2022-08-25T12:24:04;28.70;;;4.72;;
51961;SDS011;37986;51.238;17.128;2022-08-25T12:26:43;30.85;;;6.50;;
51961;SDS011;37986;51.238;17.128;2022-08-25T12:37:13;33.33;;;6.25;;
51961;SDS011;37986;51.238;17.128;2022-08-25T12:56:46;28.32;;;4.65;;
51961;SDS011;37986;51.238;17.128;2022-08-25T12:59:23;26.25;;;5.78;;
51961;SDS011;37986;51.238;17.128;2022-08-25T13:04:57;29.57;;;5.50;;
51961;SDS011;37986;51.238;17.128;2022-08-25T13:07:36;28.27;;;5.35;;
51961;SDS011;37986;51.238;17.128;2022-08-25T13:10:28;29.40;;;5.15;;
51961;SDS011;37986;51.238;17.128;2022-08-25T13:16:05;27.87;;;5.20;;
51961;SDS011;37986;51.238;17.128;2022-08-25T13:18:35;29.25;;;5.10;;
51961;SDS011;37986;51.238;17.128;2022-08-25T13:21:08;23.52;;;6.05;;
51961;SDS011;37986;51.238;17.128;2022-08-25T13:23:50;28.12;;;6.47;;
51961;SDS011;37986;51.238;17.128;2022-08-25T13:29:11;24.55;;;5.58;;
51961;SDS011;37986;51.238;17.128;2022-08-25T13:31:55;23.22;;;5.28;;
51961;SDS011;37986;51.238;17.128;2022-08-25T13:34:26;30.62;;;5.40;;
51961;SDS011;37986;51.238;17.128;2022-08-25T13:37:09;25.62;;;5.50;;
51961;SDS011;37986;51.238;17.128;2022-08-25T13:42:50;26.57;;;5.45;;
51961;SDS011;37986;51.238;17.128;2022-08-25T13:47:54;23.80;;;5.08;;
51961;SDS011;37986;51.238;17.128;2022-08-25T13:53:20;32.95;;;6.58;;
51961;SDS011;37986;51.238;17.128;2022-08-25T13:55:50;28.73;;;5.40;;
51961;SDS011;37986;51.238;17.128;2022-08-25T13:58:29;28.07;;;6.00;;
51961;SDS011;37986;51.238;17.128;2022-08-25T14:03:50;31.37;;;6.05;;
51961;SDS011;37986;51.238;17.128;2022-08-25T14:06:20;31.95;;;6.10;;
51961;SDS011;37986;51.238;17.128;2022-08-25T14:09:10;33.23;;;6.30;;
51961;SDS011;37986;51.238;17.128;2022-08-25T14:11:42;31.75;;;6.37;;
51961;SDS011;37986;51.238;17.128;2022-08-25T14:16:59;26.23;;;6.22;;
51961;SDS011;37986;51.238;17.128;2022-08-25T14:19:31;33.53;;;6.10;;
51961;SDS011;37986;51.238;17.128;2022-08-25T14:22:02;34.35;;;6.20;;
51961;SDS011;37986;51.238;17.128;2022-08-25T14:24:32;33.05;;;6.05;;
51961;SDS011;37986;51.238;17.128;2022-08-25T14:27:00;27.85;;;6.60;;
51961;SDS011;37986;51.238;17.128;2022-08-25T14:29:27;25.30;;;5.72;;
51961;SDS011;37986;51.238;17.128;2022-08-25T14:31:56;40.30;;;6.35;;
51961;SDS011;37986;51.238;17.128;2022-08-25T14:34:24;32.13;;;7.05;;
51961;SDS011;37986;51.238;17.128;2022-08-25T14:37:01;30.72;;;6.47;;
51961;SDS011;37986;51.238;17.128;2022-08-25T14:39:40;32.05;;;6.22;;
51961;SDS011;37986;51.238;17.128;2022-08-25T14:42:07;27.37;;;6.17;;
51961;SDS011;37986;51.238;17.128;2022-08-25T14:44:33;32.60;;;6.40;;
51961;SDS011;37986;51.238;17.128;2022-08-25T14:46:59;26.27;;;6.08;;
51961;SDS011;37986;51.238;17.128;2022-08-25T14:49:27;27.00;;;6.08;;
51961;SDS011;37986;51.238;17.128;2022-08-25T14:52:08;27.15;;;5.33;;
51961;SDS011;37986;51.238;17.128;2022-08-25T14:54:54;33.73;;;5.97;;
51961;SDS011;37986;51.238;17.128;2022-08-25T14:57:24;27.35;;;6.50;;
51961;SDS011;37986;51.238;17.128;2022-08-25T14:59:50;22.85;;;6.25;;
51961;SDS011;37986;51.238;17.128;2022-08-25T15:02:19;25.52;;;5.67;;
51961;SDS011;37986;51.238;17.128;2022-08-25T15:04:49;28.30;;;5.95;;
51961;SDS011;37986;51.238;17.128;2022-08-25T15:07:18;34.45;;;6.33;;
51961;SDS011;37986;51.238;17.128;2022-08-25T15:10:06;27.62;;;6.15;;
51961;SDS011;37986;51.238;17.128;2022-08-25T15:12:35;26.37;;;6.25;;
51961;SDS011;37986;51.238;17.128;2022-08-25T15:15:00;32.05;;;6.00;;
51961;SDS011;37986;51.238;17.128;2022-08-25T15:17:27;24.87;;;6.20;;
51961;SDS011;37986;51.238;17.128;2022-08-25T15:19:53;24.20;;;5.72;;
51961;SDS011;37986;51.238;17.128;2022-08-25T15:22:20;27.45;;;6.60;;
51961;SDS011;37986;51.238;17.128;2022-08-25T15:24:47;32.85;;;5.90;;
51961;SDS011;37986;51.238;17.128;2022-08-25T15:27:13;24.18;;;6.12;;
51961;SDS011;37986;51.238;17.128;2022-08-25T15:29:40;25.88;;;6.55;;
51961;SDS011;37986;51.238;17.128;2022-08-25T15:32:06;27.93;;;6.30;;
51961;SDS011;37986;51.238;17.128;2022-08-25T15:34:40;50.08;;;14.78;;
51961;SDS011;37986;51.238;17.128;2022-08-25T15:37:07;35.85;;;6.17;;
51961;SDS011;37986;51.238;17.128;2022-08-25T15:39:36;24.37;;;5.83;;
51961;SDS011;37986;51.238;17.128;2022-08-25T15:42:04;20.92;;;5.47;;
51961;SDS011;37986;51.238;17.128;2022-08-25T15:44:31;20.40;;;5.97;;
51961;SDS011;37986;51.238;17.128;2022-08-25T15:46:57;24.05;;;5.90;;
51961;SDS011;37986;51.238;17.128;2022-08-25T15:49:24;30.45;;;6.50;;
51961;SDS011;37986;51.238;17.128;2022-08-25T15:51:52;28.00;;;6.17;;
51961;SDS011;37986;51.238;17.128;2022-08-25T15:54:20;27.37;;;7.22;;
51961;SDS011;37986;51.238;17.128;2022-08-25T15:56:51;32.33;;;7.25;;
51961;SDS011;37986;51.238;17.128;2022-08-25T15:59:17;30.12;;;8.15;;
51961;SDS011;37986;51.238;17.128;2022-08-25T16:01:44;32.73;;;8.15;;
51961;SDS011;37986;51.238;17.128;2022-08-25T16:04:10;28.07;;;6.45;;
51961;SDS011;37986;51.238;17.128;2022-08-25T16:06:37;24.98;;;6.08;;
51961;SDS011;37986;51.238;17.128;2022-08-25T16:09:04;27.07;;;6.30;;
51961;SDS011;37986;51.238;17.128;2022-08-25T16:11:31;29.18;;;6.75;;
51961;SDS011;37986;51.238;17.128;2022-08-25T16:13:59;28.67;;;6.42;;
51961;SDS011;37986;51.238;17.128;2022-08-25T16:16:27;28.83;;;6.37;;
51961;SDS011;37986;51.238;17.128;2022-08-25T16:18:54;20.90;;;6.40;;
51961;SDS011;37986;51.238;17.128;2022-08-25T16:21:22;26.37;;;6.80;;
51961;SDS011;37986;51.238;17.128;2022-08-25T16:23:56;27.00;;;6.55;;
51961;SDS011;37986;51.238;17.128;2022-08-25T16:26:25;32.08;;;6.65;;
51961;SDS011;37986;51.238;17.128;2022-08-25T16:28:52;24.67;;;6.03;;
51961;SDS011;37986;51.238;17.128;2022-08-25T16:31:19;19.92;;;6.05;;
51961;SDS011;37986;51.238;17.128;2022-08-25T16:33:45;39.35;;;7.47;;
51961;SDS011;37986;51.238;17.128;2022-08-25T16:36:12;22.52;;;7.05;;
51961;SDS011;37986;51.238;17.128;2022-08-25T16:38:42;22.02;;;7.12;;
51961;SDS011;37986;51.238;17.128;2022-08-25T16:41:10;28.70;;;7.03;;
51961;SDS011;37986;51.238;17.128;2022-08-25T16:43:49;22.58;;;6.65;;
51961;SDS011;37986;51.238;17.128;2022-08-25T16:46:17;28.45;;;6.22;;
51961;SDS011;37986;51.238;17.128;2022-08-25T16:48:45;22.25;;;6.35;;
51961;SDS011;37986;51.238;17.128;2022-08-25T16:51:14;23.30;;;6.25;;
51961;SDS011;37986;51.238;17.128;2022-08-25T16:53:43;25.43;;;7.05;;
51961;SDS011;37986;51.238;17.128;2022-08-25T16:56:28;29.35;;;7.05;;
51961;SDS011;37986;51.238;17.128;2022-08-25T16:58:58;31.75;;;7.15;;
51961;SDS011;37986;51.238;17.128;2022-08-25T17:01:26;26.48;;;7.35;;
51961;SDS011;37986;51.238;17.128;2022-08-25T17:03:56;24.80;;;6.53;;
51961;SDS011;37986;51.238;17.128;2022-08-25T17:06:23;30.45;;;6.50;;
51961;SDS011;37986;51.238;17.128;2022-08-25T17:08:52;30.92;;;7.53;;
51961;SDS011;37986;51.238;17.128;2022-08-25T17:11:23;26.52;;;6.75;;
51961;SDS011;37986;51.238;17.128;2022-08-25T17:13:54;27.90;;;6.03;;
51961;SDS011;37986;51.238;17.128;2022-08-25T17:16:28;24.95;;;6.80;;
51961;SDS011;37986;51.238;17.128;2022-08-25T17:18:54;23.83;;;6.08;;
51961;SDS011;37986;51.238;17.128;2022-08-25T17:21:22;37.03;;;7.35;;